createdAt,value
2022-09-21T00:01:39.871Z,99889.06
2022-09-21T00:04:08.321Z,99880.41
2022-09-21T00:06:37.559Z,99886.22
2022-09-21T00:09:09.449Z,99876.53
2022-09-21T00:11:38.109Z,99886.56
2022-09-21T00:14:10.765Z,99891.91
2022-09-21T00:16:40.125Z,99881.59
2022-09-21T00:19:08.825Z,99896.59
2022-09-21T00:21:38.443Z,99894.75
2022-09-21T00:24:09.212Z,99888.41
2022-09-21T00:26:37.736Z,99893.91
2022-09-21T00:29:06.091Z,99894.94
2022-09-21T00:31:35.068Z,99891.91
2022-09-21T00:34:03.863Z,99888.72
2022-09-21T00:36:32.448Z,99887.56
2022-09-21T00:39:02.862Z,99888.75
2022-09-21T00:41:34.838Z,99888.75
2022-09-21T00:44:31.542Z,99881.94
2022-09-21T00:47:04.605Z,99888.94
2022-09-21T00:49:34.619Z,99878.25
2022-09-21T00:52:05.673Z,99886.44
2022-09-21T00:54:39.220Z,99888.94
2022-09-21T00:57:09.829Z,99875.41
2022-09-21T00:59:40.276Z,99873.28
2022-09-21T01:02:08.830Z,99882.78
2022-09-21T01:04:37.392Z,99890.97
2022-09-21T01:07:12.464Z,99887.28
2022-09-21T01:09:42.665Z,99884.78
2022-09-21T01:12:22.278Z,99888.66
2022-09-21T01:15:00.571Z,99893.31
2022-09-21T01:17:35.283Z,99885.16
2022-09-21T01:20:36.663Z,99895.34
2022-09-21T01:23:18.489Z,99888.34
2022-09-21T01:26:04.040Z,99890.03
2022-09-21T01:29:02.916Z,99890.47
2022-09-21T01:31:37.974Z,99891.66
2022-09-21T01:34:13.392Z,99890.03
2022-09-21T01:36:44.768Z,99890.03
2022-09-21T01:39:16.271Z,99892.84
2022-09-21T01:41:47.054Z,99891.66
2022-09-21T01:44:21.644Z,99880.50
2022-09-21T01:46:51.366Z,99886.06
2022-09-21T01:49:25.612Z,99889.53
2022-09-21T01:51:59.446Z,99886.41
2022-09-21T01:54:35.605Z,99887.38
2022-09-21T01:57:09.361Z,99891.38
2022-09-21T01:59:48.009Z,99890.03
2022-09-21T02:02:19.905Z,99891.84
2022-09-21T02:04:48.531Z,99896.88
2022-09-21T02:07:18.237Z,99901.38
2022-09-21T02:09:47.791Z,99911.56
2022-09-21T02:12:19.129Z,99903.03
2022-09-21T02:14:50.447Z,99896.41
2022-09-21T02:17:34.416Z,99904.03
2022-09-21T02:20:13.575Z,99906.44
2022-09-21T02:22:52.123Z,99895.56
2022-09-21T02:25:29.138Z,99895.75
2022-09-21T02:28:02.887Z,99897.25
2022-09-21T02:30:36.636Z,99899.72
2022-09-21T02:33:12.747Z,99896.75
2022-09-21T02:35:52.428Z,99903.75
2022-09-21T02:38:27.287Z,99921.59
2022-09-21T02:41:06.805Z,99916.06
2022-09-21T02:43:41.299Z,99915.06
2022-09-21T02:46:15.461Z,99909.09
2022-09-21T02:48:48.949Z,99911.09
2022-09-21T02:51:23.089Z,99920.75
2022-09-21T02:53:54.214Z,99922.94
2022-09-21T02:56:23.342Z,99923.75
2022-09-21T02:58:56.970Z,99917.13
2022-09-21T03:01:28.387Z,99922.94
2022-09-21T03:03:56.960Z,99925.44
2022-09-21T03:06:25.464Z,99927.44
2022-09-21T03:08:53.863Z,99923.28
2022-09-21T03:11:22.392Z,99927.44
2022-09-21T03:13:50.554Z,99925.63
2022-09-21T03:16:19.655Z,99931.56
2022-09-21T03:18:49.437Z,99927.44
2022-09-21T03:21:17.956Z,99930.09
2022-09-21T03:23:46.206Z,99938.09
2022-09-21T03:26:14.650Z,99938.09
2022-09-21T03:28:42.913Z,99945.81
2022-09-21T03:31:12.490Z,99954.44
2022-09-21T03:33:40.937Z,99934.41
2022-09-21T03:36:11.769Z,99944.72
2022-09-21T03:38:40.144Z,99944.38
2022-09-21T03:41:08.633Z,99946.88
2022-09-21T03:43:36.930Z,99941.56
2022-09-21T03:46:05.539Z,99950.22
2022-09-21T03:48:33.851Z,99947.66
2022-09-21T03:51:02.373Z,99949.31
2022-09-21T03:53:32.110Z,99947.00
2022-09-21T03:56:00.602Z,99947.50
2022-09-21T03:58:28.857Z,99941.81
2022-09-21T04:01:02.720Z,99943.94
2022-09-21T04:03:31.320Z,99935.19
2022-09-21T04:05:59.804Z,99944.13
2022-09-21T04:08:28.094Z,99941.81
2022-09-21T04:10:57.915Z,99951.81
2022-09-21T04:13:26.187Z,99947.97
2022-09-21T04:15:54.649Z,99948.81
2022-09-21T04:18:23.018Z,99943.47
2022-09-21T04:20:51.472Z,99945.97
2022-09-21T04:23:19.981Z,99944.13
2022-09-21T04:25:51.522Z,99943.13
2022-09-21T04:28:21.234Z,99950.09
2022-09-21T04:30:49.699Z,99947.44
2022-09-21T04:33:18.010Z,99950.81
2022-09-21T04:35:46.464Z,99954.28
2022-09-21T04:38:14.836Z,99951.44
2022-09-21T04:40:43.291Z,99956.78
2022-09-21T04:43:11.608Z,99955.72
2022-09-21T04:45:41.570Z,99959.84
2022-09-21T04:48:10.057Z,99962.34
2022-09-21T04:50:39.647Z,99953.31
2022-09-21T04:53:11.045Z,99954.00
2022-09-21T04:55:39.375Z,99953.81
2022-09-21T04:58:07.825Z,99956.66
2022-09-21T05:00:36.134Z,99951.31
2022-09-21T05:03:05.995Z,99956.47
2022-09-21T05:05:34.369Z,99957.16
2022-09-21T05:08:03.263Z,99951.97
2022-09-21T05:10:30.610Z,99960.00
2022-09-21T05:12:59.467Z,99961.63
2022-09-21T05:15:27.810Z,99961.63
2022-09-21T05:17:56.346Z,99964.13
2022-09-21T05:20:26.004Z,99961.63
2022-09-21T05:22:54.457Z,99960.78
2022-09-21T05:25:22.719Z,99960.00
2022-09-21T05:27:51.143Z,99955.94
2022-09-21T05:30:20.446Z,99965.59
2022-09-21T05:32:57.319Z,99972.91
2022-09-21T05:35:35.213Z,99960.09
2022-09-21T05:38:13.128Z,99968.28
2022-09-21T05:40:41.892Z,99956.56
2022-09-21T05:43:11.537Z,99955.59
2022-09-21T05:45:47.742Z,99965.25
2022-09-21T05:48:20.749Z,99956.88
2022-09-21T05:50:59.934Z,99961.75
2022-09-21T05:53:47.330Z,99956.56
2022-09-21T05:56:25.162Z,99962.75
2022-09-21T05:59:01.168Z,99964.22
2022-09-21T06:01:42.074Z,99967.25
2022-09-21T06:04:13.464Z,99964.59
2022-09-21T06:06:43.175Z,99973.25
2022-09-21T06:09:11.616Z,99978.25
2022-09-21T06:11:40.064Z,99984.38
2022-09-21T06:14:08.504Z,99980.66
2022-09-21T06:16:40.517Z,99982.03
2022-09-21T06:19:12.684Z,99977.03
2022-09-21T06:21:42.531Z,99976.19
2022-09-21T06:24:10.974Z,99977.03
2022-09-21T06:26:39.448Z,99975.22
2022-09-21T06:29:07.884Z,99976.19
2022-09-21T06:31:36.674Z,99972.53
2022-09-21T06:34:05.624Z,99978.69
2022-09-21T06:36:33.983Z,99981.94
2022-09-21T06:39:04.244Z,99979.88
2022-09-21T06:41:32.588Z,99979.88
2022-09-21T06:44:01.131Z,99978.59
2022-09-21T06:46:29.554Z,99981.19
2022-09-21T06:48:58.430Z,99972.38
2022-09-21T06:51:26.777Z,99972.59
2022-09-21T06:53:56.908Z,99975.84
2022-09-21T06:56:27.259Z,99982.28
2022-09-21T06:58:56.574Z,99981.38
2022-09-21T07:01:25.543Z,99978.59
2022-09-21T07:03:54.410Z,99979.13
2022-09-21T07:06:22.824Z,99979.97
2022-09-21T07:11:43.292Z,99981.16
2022-09-21T07:14:11.744Z,99981.69
2022-09-21T07:16:40.272Z,99987.22
2022-09-21T07:19:11.061Z,99978.34
2022-09-21T07:21:39.819Z,99976.72
2022-09-21T07:24:11.964Z,99978.53
2022-09-21T07:26:42.532Z,99986.72
2022-09-21T07:29:10.927Z,99979.72
2022-09-21T07:31:39.701Z,99982.41
2022-09-21T07:34:08.151Z,99976.03
2022-09-21T07:36:36.591Z,99977.91
2022-09-21T07:39:06.196Z,99975.88
2022-09-21T07:41:34.694Z,99985.72
2022-09-21T07:44:05.291Z,99988.56
2022-09-21T07:46:33.959Z,99995.56
2022-09-21T07:49:02.248Z,99996.41
2022-09-21T07:51:31.009Z,99988.56
2022-09-21T07:53:59.290Z,99985.06
2022-09-21T07:56:27.792Z,99981.19
2022-09-21T07:59:07.162Z,99985.06
2022-09-21T08:01:37.853Z,99988.94
2022-09-21T08:04:09.509Z,99986.09
2022-09-21T08:06:40.483Z,99979.06
2022-09-21T08:09:09.727Z,99975.41
2022-09-21T08:11:39.398Z,99981.56
2022-09-21T08:14:07.919Z,99980.75
2022-09-21T08:16:39.734Z,99985.25
2022-09-21T08:19:08.197Z,99981.09
2022-09-21T08:21:36.503Z,99977.41
2022-09-21T08:24:04.915Z,99974.09
2022-09-21T08:26:33.787Z,99968.59
2022-09-21T08:29:02.076Z,99964.06
2022-09-21T08:31:31.472Z,99958.72
2022-09-21T08:34:01.480Z,99955.88
2022-09-21T08:36:30.105Z,99936.38
2022-09-21T08:38:58.898Z,99951.41
2022-09-21T08:41:40.001Z,99948.72
2022-09-21T08:44:16.396Z,99935.56
2022-09-21T08:46:48.040Z,99950.72
2022-09-21T08:49:23.164Z,99940.06
2022-09-21T08:51:57.040Z,99947.03
2022-09-21T08:54:30.571Z,99945.03
2022-09-21T08:57:05.438Z,99943.22
2022-09-21T08:59:35.698Z,99939.53
2022-09-21T09:02:20.175Z,99943.03
2022-09-21T09:04:58.725Z,99943.03
2022-09-21T09:07:59.787Z,99943.03
2022-09-21T09:10:37.995Z,99947.34
2022-09-21T09:13:26.767Z,99957.38
2022-09-21T09:16:03.381Z,99966.38
2022-09-21T09:18:43.696Z,99960.22
2022-09-21T09:21:27.807Z,99964.72
2022-09-21T09:24:03.923Z,99962.06
2022-09-21T09:26:42.719Z,99962.88
2022-09-21T09:29:20.614Z,99964.72
2022-09-21T09:31:50.261Z,99962.53
2022-09-21T09:34:23.073Z,99957.19
2022-09-21T09:36:59.875Z,99957.00
2022-09-21T09:39:30.984Z,99965.69
2022-09-21T09:42:29.027Z,99957.66
2022-09-21T09:45:35.413Z,99960.34
2022-09-21T09:48:18.348Z,99976.81
2022-09-21T09:50:47.807Z,99970.00
2022-09-21T09:53:21.560Z,99975.34
2022-09-21T09:55:52.510Z,99974.50
2022-09-21T09:58:21.989Z,99978.00
2022-09-21T10:00:54.170Z,99971.00
2022-09-21T10:03:24.377Z,99969.34
2022-09-21T10:05:53.452Z,99967.69
2022-09-21T10:08:42.189Z,99970.34
2022-09-21T10:11:12.375Z,99975.06
2022-09-21T10:13:42.666Z,99970.34
2022-09-21T10:16:15.888Z,99976.72
2022-09-21T10:18:49.130Z,99971.00
2022-09-21T10:21:21.624Z,99980.84
2022-09-21T10:23:53.930Z,99988.69
2022-09-21T10:26:23.188Z,99978.84
2022-09-21T10:29:00.227Z,99981.69
2022-09-21T10:31:31.379Z,99983.34
2022-09-21T10:34:15.038Z,99994.03
2022-09-21T10:36:51.886Z,99988.69
2022-09-21T10:39:24.726Z,99991.34
2022-09-21T10:41:56.309Z,99991.34
2022-09-21T10:44:30.099Z,99994.69
2022-09-21T10:47:03.779Z,100000.31
2022-09-21T10:49:32.194Z,99991.00
2022-09-21T10:52:02.900Z,99993.66
2022-09-21T10:54:34.650Z,99990.34
2022-09-21T10:57:07.148Z,99991.19
2022-09-21T10:59:37.755Z,99991.34
2022-09-21T11:02:29.853Z,99985.00
2022-09-21T11:05:02.298Z,99983.16
2022-09-21T11:07:34.990Z,99979.47
2022-09-21T11:10:16.320Z,99976.63
2022-09-21T11:12:56.282Z,99978.50
2022-09-21T11:15:41.515Z,99976.00
2022-09-21T11:18:20.273Z,99972.50
2022-09-21T11:20:52.375Z,99977.66
2022-09-21T11:23:30.537Z,99970.66
2022-09-21T11:26:07.101Z,99977.47
2022-09-21T11:28:41.900Z,99973.50
2022-09-21T11:31:47.809Z,99971.97
2022-09-21T11:34:53.759Z,99975.63
2022-09-21T11:37:37.531Z,99968.63
2022-09-21T11:40:26.839Z,99979.66
2022-09-21T11:43:03.776Z,99968.16
2022-09-21T11:45:50.510Z,99972.66
2022-09-21T11:48:30.606Z,99971.81
2022-09-21T11:51:16.253Z,99971.00
2022-09-21T11:54:06.239Z,99972.00
2022-09-21T11:56:45.649Z,99973.03
2022-09-21T11:59:39.116Z,99976.03
2022-09-21T12:02:31.595Z,99982.03
2022-09-21T12:05:08.127Z,99984.88
2022-09-21T12:07:54.590Z,99978.53
2022-09-21T12:10:41.021Z,99978.72
2022-09-21T12:13:18.898Z,99987.38
2022-09-21T12:15:56.399Z,99976.72
2022-09-21T12:18:35.478Z,99982.03
2022-09-21T12:21:09.899Z,99980.41
2022-09-21T12:23:44.300Z,99982.03
2022-09-21T12:26:18.077Z,99974.88
2022-09-21T12:28:51.755Z,99981.19
2022-09-21T12:31:25.963Z,99987.22
2022-09-21T12:33:59.583Z,99990.69
2022-09-21T12:36:37.069Z,99983.69
2022-09-21T12:39:14.879Z,99978.34
2022-09-21T12:41:51.625Z,99980.84
2022-09-21T12:44:27.287Z,99974.66
2022-09-21T12:47:09.663Z,99972.00
2022-09-21T12:49:43.545Z,99974.66
2022-09-21T12:52:23.189Z,99982.88
2022-09-21T12:54:58.572Z,99980.84
2022-09-21T12:58:04.422Z,99981.69
2022-09-21T13:00:46.968Z,99974.88
2022-09-21T13:03:22.612Z,99981.19
2022-09-21T13:06:10.457Z,99980.75
2022-09-21T13:08:42.218Z,99970.72
2022-09-21T13:11:11.514Z,99969.72
2022-09-21T13:13:45.894Z,99977.72
2022-09-21T13:16:27.757Z,99974.38
2022-09-21T13:18:59.682Z,99971.72
2022-09-21T13:21:32.366Z,99972.91
2022-09-21T13:24:02.944Z,99970.72
2022-09-21T13:26:37.924Z,99969.34
2022-09-21T13:29:29.530Z,99979.72
2022-09-21T13:32:00.914Z,99981.56
2022-09-21T13:34:32.389Z,99971.72
2022-09-21T13:37:29.723Z,99974.22
2022-09-21T13:40:40.279Z,99988.50
2022-09-21T13:43:19.861Z,99985.34
2022-09-21T13:45:57.877Z,99982.69
2022-09-21T13:48:30.053Z,99983.34
2022-09-21T13:51:01.629Z,99986.69
2022-09-21T13:53:40.276Z,99982.88
2022-09-21T13:56:16.798Z,99983.06
2022-09-21T13:58:48.604Z,99993.75
2022-09-21T14:01:45.294Z,99991.88
2022-09-21T14:04:21.134Z,99991.25
2022-09-21T14:06:52.502Z,99987.38
2022-09-21T14:09:25.978Z,99995.22
2022-09-21T14:11:58.280Z,99992.66
2022-09-21T14:14:33.038Z,99993.00
2022-09-21T14:17:02.603Z,99994.50
2022-09-21T14:19:49.159Z,100001.91
2022-09-21T14:22:43.771Z,99998.06
2022-09-21T14:25:54.620Z,99989.22
2022-09-21T14:28:35.914Z,99993.75
2022-09-21T14:31:09.324Z,99994.72
2022-09-21T14:33:48.362Z,99996.59
2022-09-21T14:36:21.362Z,99989.56
2022-09-21T14:38:54.868Z,99991.41
2022-09-21T14:41:27.447Z,99991.59
2022-09-21T14:43:56.903Z,99991.59
2022-09-21T14:46:45.949Z,99990.66
2022-09-21T14:49:33.021Z,99996.97
2022-09-21T14:52:18.085Z,99995.47
2022-09-21T14:55:01.634Z,100005.28
2022-09-21T14:58:01.506Z,100003.91
2022-09-21T15:00:39.810Z,100000.78
2022-09-21T15:03:47.491Z,100003.63
2022-09-21T15:06:45.690Z,100001.78
2022-09-21T15:09:54.707Z,100006.59
2022-09-21T15:12:28.795Z,100006.25
2022-09-21T15:15:07.253Z,100008.25
2022-09-21T15:17:36.109Z,100010.28
2022-09-21T15:20:18.330Z,100019.66
2022-09-21T15:22:46.788Z,100023.13
2022-09-21T15:25:15.979Z,100036.81
2022-09-21T15:27:46.990Z,100032.44
2022-09-21T15:30:23.673Z,100033.16
2022-09-21T15:32:55.087Z,100034.81
2022-09-21T15:35:25.890Z,100036.81
2022-09-21T15:37:55.069Z,100038.50
2022-09-21T15:40:26.150Z,100036.81
2022-09-21T15:43:04.054Z,100040.31
2022-09-21T15:45:38.184Z,100031.47
2022-09-21T15:48:13.416Z,100036.00
2022-09-21T15:50:43.746Z,100032.50
2022-09-21T15:53:20.069Z,100036.00
2022-09-21T15:55:49.931Z,100038.69
2022-09-21T15:58:27.167Z,100034.53
2022-09-21T16:00:58.029Z,100033.34
2022-09-21T16:03:27.372Z,100033.34
2022-09-21T16:05:57.702Z,100028.34
2022-09-21T16:08:33.324Z,100029.81
2022-09-21T16:11:35.865Z,100035.47
2022-09-21T16:14:29.096Z,100028.97
2022-09-21T16:17:24.255Z,100037.50
2022-09-21T16:20:19.995Z,100037.50
2022-09-21T16:22:51.103Z,100041.50
2022-09-21T16:25:32.996Z,100037.84
2022-09-21T16:28:03.466Z,100048.81
2022-09-21T16:30:43.400Z,100044.81
2022-09-21T16:33:41.140Z,100042.84
2022-09-21T16:36:49.608Z,100041.16
2022-09-21T16:39:19.787Z,100041.50
2022-09-21T16:41:52.215Z,100046.50
2022-09-21T16:44:22.956Z,100044.34
2022-09-21T16:46:58.787Z,100039.16
2022-09-21T16:49:31.298Z,100039.03
2022-09-21T16:52:01.580Z,100039.16
2022-09-21T16:54:30.581Z,100052.69
2022-09-21T16:57:00.751Z,100040.34
2022-09-21T16:59:30.067Z,100047.69
2022-09-21T17:01:59.465Z,100048.19
2022-09-21T17:04:31.592Z,100049.84
2022-09-21T17:07:01.029Z,100049.16
2022-09-21T17:09:33.366Z,100055.34
2022-09-21T17:12:03.048Z,100051.84
2022-09-21T17:14:35.504Z,100054.66
2022-09-21T17:17:08.636Z,100058.84
2022-09-21T17:19:38.446Z,100060.84
2022-09-21T17:22:07.490Z,100060.84
2022-09-21T17:24:50.235Z,100060.84
2022-09-21T17:27:20.222Z,100067.84
2022-09-21T17:29:49.576Z,100067.34
2022-09-21T17:32:21.044Z,100072.50
2022-09-21T17:34:56.985Z,100071.31
2022-09-21T17:37:27.099Z,100071.66
2022-09-21T17:39:55.430Z,100085.22
2022-09-21T17:42:26.129Z,100080.34
2022-09-21T17:45:04.474Z,100080.69
2022-09-21T17:47:34.198Z,100089.19
2022-09-21T17:50:25.938Z,100086.50
2022-09-21T17:53:13.027Z,100085.72
2022-09-21T17:55:46.966Z,100086.69
2022-09-21T17:58:33.885Z,100089.19
2022-09-21T18:01:07.557Z,100091.22
2022-09-21T18:03:41.422Z,100084.03
2022-09-21T18:06:13.025Z,100089.19
2022-09-21T18:08:42.092Z,100093.88
2022-09-21T18:11:47.411Z,100098.53
2022-09-21T18:14:25.475Z,100087.06
2022-09-21T18:17:05.688Z,100095.88
2022-09-21T18:19:45.643Z,100098.53
2022-09-21T18:22:24.425Z,100091.22
2022-09-21T18:24:55.472Z,100096.06
2022-09-21T18:27:24.387Z,100098.88
2022-09-21T18:29:53.346Z,100098.88
2022-09-21T18:32:37.801Z,100087.22
2022-09-21T18:35:41.769Z,100094.22
2022-09-21T18:38:22.042Z,100092.56
2022-09-21T18:41:11.481Z,100083.72
2022-09-21T18:44:05.447Z,100082.06
2022-09-21T18:46:43.807Z,100089.06
2022-09-21T18:49:18.666Z,100083.72
2022-09-21T18:51:53.070Z,100099.72
2022-09-21T18:54:25.780Z,100085.22
2022-09-21T18:56:55.714Z,100084.56
2022-09-21T18:59:27.317Z,100086.56
2022-09-21T19:01:59.454Z,100084.91
2022-09-21T19:04:29.840Z,100088.22
2022-09-21T19:07:04.408Z,100089.41
2022-09-21T19:09:44.442Z,100086.75
2022-09-21T19:12:22.116Z,100090.25
2022-09-21T19:15:02.907Z,100079.75
2022-09-21T19:17:46.207Z,100090.59
2022-09-21T19:20:34.801Z,100081.56
2022-09-21T19:23:14.707Z,100081.56
2022-09-21T19:25:49.759Z,100089.09
2022-09-21T19:28:36.640Z,100095.09
2022-09-21T19:31:11.336Z,100093.25
2022-09-21T19:33:55.694Z,100092.41
2022-09-21T19:36:24.867Z,100097.56
2022-09-21T19:38:53.611Z,100095.81
2022-09-21T19:41:46.155Z,100091.59
2022-09-21T19:44:31.395Z,100099.59
2022-09-21T19:47:09.159Z,100094.09
2022-09-21T19:49:47.885Z,100094.28
2022-09-21T19:52:18.669Z,100096.09
2022-09-21T19:55:05.352Z,100090.94
2022-09-21T19:57:54.399Z,100088.09
2022-09-21T20:00:24.177Z,100090.94
2022-09-21T20:03:05.096Z,100081.28
2022-09-21T20:05:47.858Z,100086.44
2022-09-21T20:08:21.411Z,100079.25
2022-09-21T20:11:11.540Z,100075.91
2022-09-21T20:14:06.599Z,100077.44
2022-09-21T20:16:44.855Z,100067.94
2022-09-21T20:19:25.728Z,100071.25
2022-09-21T20:22:00.605Z,100080.25
2022-09-21T20:24:33.859Z,100083.94
2022-09-21T20:27:03.903Z,100083.28
2022-09-21T20:29:33.720Z,100078.59
2022-09-21T20:32:02.240Z,100087.78
2022-09-21T20:34:31.728Z,100088.25
2022-09-21T20:37:00.009Z,100086.63
2022-09-21T20:39:28.299Z,100075.94
2022-09-21T20:41:58.353Z,100087.97
2022-09-21T20:44:26.807Z,100075.28
2022-09-21T20:46:56.897Z,100082.25
2022-09-21T20:49:25.567Z,100082.25
2022-09-21T20:51:53.823Z,100080.59
2022-09-21T20:54:23.578Z,100087.97
2022-09-21T20:56:51.868Z,100083.28
2022-09-21T20:59:20.662Z,100085.94
2022-09-21T21:01:49.303Z,100084.28
2022-09-21T21:04:19.370Z,100093.31
2022-09-21T21:06:49.227Z,100091.63
2022-09-21T21:09:17.661Z,100089.13
2022-09-21T21:11:45.987Z,100082.97
2022-09-21T21:14:14.568Z,100086.13
2022-09-21T21:16:42.917Z,100090.63
2022-09-21T21:19:11.459Z,100093.31
2022-09-21T21:21:41.268Z,100096.94
2022-09-21T21:24:27.130Z,100094.44
2022-09-21T21:27:03.535Z,100098.97
2022-09-21T21:29:32.368Z,100101.66
2022-09-21T21:32:01.393Z,100101.66
2022-09-21T21:34:29.760Z,100105.63
2022-09-21T21:36:59.491Z,100107.97
2022-09-21T21:39:28.123Z,100098.97
2022-09-21T21:41:56.421Z,100092.81
2022-09-21T21:44:24.980Z,100098.31
2022-09-21T21:46:54.061Z,100099.31
2022-09-21T21:49:22.569Z,100094.81
2022-09-21T21:51:51.295Z,100088.66
2022-09-21T21:54:23.622Z,100099.97
2022-09-21T21:56:52.793Z,100098.31
2022-09-21T21:59:21.955Z,100092.97
2022-09-21T22:01:50.716Z,100089.00
2022-09-21T22:04:19.053Z,100089.84
2022-09-21T22:06:47.778Z,100090.66
2022-09-21T22:09:18.531Z,100095.97
2022-09-21T22:11:48.895Z,100092.34
2022-09-21T22:14:18.989Z,100091.00
2022-09-21T22:16:47.543Z,100096.66
2022-09-21T22:19:15.838Z,100087.81
2022-09-21T22:21:51.747Z,100085.31
2022-09-21T22:24:22.385Z,100081.66
2022-09-21T22:26:52.297Z,100081.66
2022-09-21T22:29:20.600Z,100082.66
2022-09-21T22:31:50.955Z,100073.00
2022-09-21T22:34:19.614Z,100068.84
2022-09-21T22:36:48.020Z,100067.38
2022-09-21T22:39:16.311Z,100069.31
2022-09-21T22:41:45.081Z,100064.31
2022-09-21T22:44:14.952Z,100062.19
2022-09-21T22:46:43.433Z,100063.84
2022-09-21T22:49:11.723Z,100067.00
2022-09-21T22:51:40.214Z,100070.03
2022-09-21T22:54:08.505Z,100067.38
2022-09-21T22:56:37.065Z,100063.84
2022-09-21T22:59:06.237Z,100061.34
2022-09-21T23:01:38.329Z,100062.84
2022-09-21T23:04:08.923Z,100057.69
2022-09-21T23:06:39.276Z,100060.50
2022-09-21T23:09:10.972Z,100060.84
2022-09-21T23:11:42.989Z,100055.53
2022-09-21T23:14:12.627Z,100058.03
2022-09-21T23:16:43.482Z,100055.19
2022-09-21T23:19:15.894Z,100047.84
2022-09-21T23:21:46.310Z,100060.19
2022-09-21T23:24:14.621Z,100052.69
2022-09-21T23:26:43.332Z,100056.38
2022-09-21T23:29:13.718Z,100055.19
2022-09-21T23:31:45.804Z,100044.84
2022-09-21T23:34:15.743Z,100047.72
2022-09-21T23:36:44.607Z,100033.22
2022-09-21T23:39:14.961Z,100031.72
2022-09-21T23:41:44.090Z,100028.22
2022-09-21T23:44:12.507Z,100033.72
2022-09-21T23:46:41.493Z,100037.06
2022-09-21T23:49:11.434Z,100042.75
2022-09-21T23:51:39.990Z,100038.72
2022-09-21T23:54:09.121Z,100051.53
2022-09-21T23:56:38.087Z,100048.06
2022-09-21T23:59:06.779Z,100047.91
